Time;durP1;ratioP1;P1;durP2;ratioP2;P2;SDS_P1;SDS_P2;PMS_P1;PMS_P2;Temp;Humidity;BMP_temperature;BMP_pressure;BME280_temperature;BME280_humidity;BME280_pressure;Samples;Min_cycle;Max_cycle;Signal;HPM_P1;HPM_P2
2023/08/06 00:00:27;;;;;;;5.43;3.57;;;25.70;51.70;;;;;;5015553;28;20415;-84
2023/08/06 00:02:55;;;;;;;4.10;3.80;;;25.70;51.60;;;;;;5013934;28;20418;-84
2023/08/06 00:05:23;;;;;;;3.93;3.63;;;25.70;51.70;;;;;;4996626;28;20532;-84
2023/08/06 00:07:53;;;;;;;5.10;3.60;;;25.70;51.70;;;;;;4994647;28;20520;-84
2023/08/06 00:10:21;;;;;;;4.60;3.90;;;25.70;51.60;;;;;;5013294;28;20454;-84
2023/08/06 00:12:49;;;;;;;4.83;4.10;;;25.70;51.60;;;;;;5005307;28;20510;-84
2023/08/06 00:15:17;;;;;;;3.60;3.40;;;25.70;51.70;;;;;;5013916;28;20532;-84
2023/08/06 00:17:45;;;;;;;4.20;3.60;;;25.60;51.70;;;;;;5011659;28;20477;-84
2023/08/06 00:20:13;;;;;;;4.13;3.83;;;25.60;51.70;;;;;;5009462;28;20484;-84
2023/08/06 00:22:42;;;;;;;5.00;4.23;;;25.60;51.80;;;;;;5013815;28;20421;-84
2023/08/06 00:25:12;;;;;;;3.67;3.37;;;25.60;51.60;;;;;;5006628;28;20478;-84
2023/08/06 00:27:40;;;;;;;3.57;3.17;;;25.60;51.80;;;;;;5011847;28;20543;-84
2023/08/06 00:30:08;;;;;;;4.23;3.80;;;25.50;51.80;;;;;;5013211;28;20444;-84
2023/08/06 00:32:36;;;;;;;3.47;3.27;;;25.50;51.80;;;;;;5012641;28;20447;-84
2023/08/06 00:35:06;;;;;;;3.90;3.60;;;25.50;51.70;;;;;;5013113;28;20549;-84
2023/08/06 00:37:34;;;;;;;4.03;3.70;;;25.50;51.80;;;;;;5012885;28;20501;-84
2023/08/06 00:40:02;;;;;;;3.40;3.10;;;25.50;51.80;;;;;;4999844;28;20420;-84
2023/08/06 00:42:31;;;;;;;4.30;3.90;;;25.50;51.80;;;;;;4993367;28;20473;-84
2023/08/06 00:45:00;;;;;;;4.20;3.80;;;25.40;51.60;;;;;;5005793;28;20426;-84
2023/08/06 00:47:28;;;;;;;4.10;3.80;;;25.40;51.90;;;;;;5006318;28;20420;-84
2023/08/06 00:49:56;;;;;;;4.03;3.70;;;25.40;51.70;;;;;;4997387;28;20426;-84
2023/08/06 00:52:24;;;;;;;4.00;3.70;;;25.40;51.70;;;;;;5005098;28;20541;-84
2023/08/06 00:54:52;;;;;;;3.77;3.47;;;25.40;51.80;;;;;;5009529;28;20797;-84
2023/08/06 00:57:21;;;;;;;3.93;3.70;;;25.40;51.80;;;;;;5016746;28;20548;-84
2023/08/06 00:59:50;;;;;;;4.07;3.77;;;25.40;51.80;;;;;;5016823;28;20482;-84
2023/08/06 01:02:18;;;;;;;3.80;3.43;;;25.40;51.80;;;;;;5016055;28;20447;-84
2023/08/06 01:04:46;;;;;;;3.83;3.53;;;25.40;51.90;;;;;;5017053;28;20448;-84
2023/08/06 01:07:20;;;;;;;3.90;3.57;;;25.40;51.60;;;;;;5001698;28;20472;-84
2023/08/06 01:09:51;;;;;;;3.57;3.27;;;25.40;51.70;;;;;;5016261;28;20426;-84
2023/08/06 01:12:22;;;;;;;4.10;3.70;;;25.30;51.70;;;;;;5016784;28;20489;-84
2023/08/06 01:14:54;;;;;;;3.93;3.63;;;25.30;51.90;;;;;;5016488;28;20515;-83
2023/08/06 01:17:22;;;;;;;3.43;3.20;;;25.30;51.80;;;;;;5016633;28;20456;-84
2023/08/06 01:19:50;;;;;;;4.17;3.87;;;25.30;51.80;;;;;;5015323;28;20435;-84
2023/08/06 01:22:20;;;;;;;4.27;3.60;;;25.30;51.80;;;;;;5001718;28;20491;-84
2023/08/06 01:24:50;;;;;;;6.07;3.60;;;25.30;51.80;;;;;;5015601;28;20509;-84
2023/08/06 01:27:24;;;;;;;3.47;3.27;;;25.20;51.80;;;;;;5016431;28;20445;-84
2023/08/06 01:29:57;;;;;;;3.67;3.47;;;25.30;51.80;;;;;;5008534;28;20447;-84
2023/08/06 01:32:26;;;;;;;3.90;3.60;;;25.20;51.80;;;;;;5016562;28;20470;-84
2023/08/06 01:34:54;;;;;;;3.97;3.67;;;25.20;51.80;;;;;;5007245;28;20449;-84
2023/08/06 01:37:23;;;;;;;4.00;3.70;;;25.20;51.80;;;;;;5008966;28;20475;-84
2023/08/06 01:39:51;;;;;;;3.60;3.33;;;25.20;51.70;;;;;;5015843;28;20444;-84
2023/08/06 01:42:20;;;;;;;3.70;3.40;;;25.20;51.80;;;;;;5017230;28;20464;-84
2023/08/06 01:44:48;;;;;;;3.80;3.60;;;25.20;51.80;;;;;;5015293;28;20462;-83
2023/08/06 01:47:16;;;;;;;3.90;3.60;;;25.20;51.60;;;;;;4996765;28;20449;-84
2023/08/06 01:49:44;;;;;;;3.80;3.50;;;25.20;51.80;;;;;;5007067;28;20420;-84
2023/08/06 01:52:12;;;;;;;3.37;3.17;;;25.20;51.80;;;;;;5016129;28;20517;-84
2023/08/06 01:54:42;;;;;;;3.53;3.33;;;25.20;51.80;;;;;;5014532;28;20502;-84
2023/08/06 01:57:10;;;;;;;3.97;3.57;;;25.10;51.70;;;;;;5001602;28;20472;-84
2023/08/06 01:59:38;;;;;;;3.40;3.20;;;25.10;51.70;;;;;;5014945;28;20427;-84
2023/08/06 02:02:06;;;;;;;3.93;3.63;;;25.10;51.70;;;;;;5009106;28;20511;-84
2023/08/06 02:04:35;;;;;;;3.30;3.10;;;25.10;51.90;;;;;;5016094;28;20456;-84
2023/08/06 02:07:03;;;;;;;3.30;3.10;;;25.20;51.80;;;;;;5011926;28;20518;-84
2023/08/06 02:09:31;;;;;;;3.73;3.47;;;25.10;51.70;;;;;;5012202;28;20482;-84
2023/08/06 02:12:02;;;;;;;3.73;3.43;;;25.10;51.70;;;;;;5002147;28;20977;-83
2023/08/06 02:14:30;;;;;;;3.50;3.30;;;25.10;51.80;;;;;;5007774;28;20427;-84
2023/08/06 02:16:58;;;;;;;3.30;3.20;;;25.10;51.80;;;;;;5015529;28;20416;-84
2023/08/06 02:19:27;;;;;;;3.60;3.40;;;25.10;51.80;;;;;;5015228;28;20502;-84
2023/08/06 02:21:54;;;;;;;3.40;3.20;;;25.10;51.80;;;;;;4999140;28;20470;-84
2023/08/06 02:24:23;;;;;;;3.57;3.23;;;25.10;51.70;;;;;;5015480;28;20490;-84
2023/08/06 02:26:55;;;;;;;3.70;3.50;;;25.10;51.90;;;;;;5015470;28;20427;-84
2023/08/06 02:29:25;;;;;;;4.33;4.03;;;25.00;51.60;;;;;;5015577;28;20508;-84
2023/08/06 02:31:53;;;;;;;3.87;3.57;;;25.00;51.90;;;;;;5015281;28;20443;-83
2023/08/06 02:34:22;;;;;;;3.10;2.90;;;25.00;51.90;;;;;;5015390;28;20422;-84
2023/08/06 02:36:51;;;;;;;3.73;3.43;;;25.00;51.70;;;;;;5015442;28;20423;-84
2023/08/06 02:39:19;;;;;;;3.50;3.20;;;25.00;51.80;;;;;;5015777;28;20467;-83
2023/08/06 02:41:47;;;;;;;3.13;2.93;;;25.00;51.80;;;;;;5016878;28;20447;-83
2023/08/06 02:44:15;;;;;;;3.47;3.17;;;25.00;51.90;;;;;;5015509;28;20480;-83
2023/08/06 02:46:45;;;;;;;3.70;3.40;;;25.00;51.60;;;;;;5016067;28;20444;-84
2023/08/06 02:49:13;;;;;;;3.50;3.30;;;25.00;51.90;;;;;;5010339;28;20512;-84
2023/08/06 02:51:41;;;;;;;3.40;3.20;;;25.00;51.80;;;;;;5011769;28;20506;-84
2023/08/06 02:54:09;;;;;;;3.20;3.00;;;25.00;51.90;;;;;;5024098;28;20460;-83
2023/08/06 02:56:38;;;;;;;3.40;3.20;;;25.00;51.70;;;;;;5013704;28;20424;-84
2023/08/06 02:59:06;;;;;;;3.00;2.80;;;24.90;51.80;;;;;;5018643;28;20436;-83
2023/08/06 03:01:34;;;;;;;3.30;3.10;;;24.90;51.60;;;;;;5032474;28;20544;-83
2023/08/06 03:04:03;;;;;;;3.47;3.17;;;24.90;51.90;;;;;;5037566;28;20415;-83
2023/08/06 03:06:31;;;;;;;3.50;3.30;;;24.90;52.30;;;;;;5026839;28;20454;-84
2023/08/06 03:08:59;;;;;;;3.07;2.87;;;24.90;52.00;;;;;;5006690;28;20523;-84
2023/08/06 03:11:27;;;;;;;3.40;2.93;;;24.90;52.00;;;;;;5014526;28;20460;-84
2023/08/06 03:13:55;;;;;;;3.17;2.97;;;24.90;51.80;;;;;;5006097;28;20469;-84
2023/08/06 03:16:23;;;;;;;3.07;2.93;;;24.80;51.70;;;;;;5014430;28;20487;-84
2023/08/06 03:18:52;;;;;;;3.27;2.97;;;24.80;51.90;;;;;;5015674;28;20468;-84
2023/08/06 03:21:21;;;;;;;3.33;3.13;;;24.80;51.90;;;;;;5015501;28;20439;-84
2023/08/06 03:23:50;;;;;;;3.83;3.13;;;24.80;51.90;;;;;;5013847;28;20423;-84
2023/08/06 03:26:18;;;;;;;2.87;2.77;;;24.80;51.90;;;;;;5008487;28;20454;-83
2023/08/06 03:28:46;;;;;;;3.47;3.27;;;24.80;51.80;;;;;;5014539;28;20819;-83
2023/08/06 03:31:14;;;;;;;3.23;3.00;;;24.80;52.50;;;;;;5015166;28;20502;-83
2023/08/06 03:33:42;;;;;;;3.27;3.03;;;24.80;52.00;;;;;;5015143;28;20423;-83
2023/08/06 03:36:11;;;;;;;3.67;2.93;;;24.80;51.90;;;;;;5013967;28;20454;-83
2023/08/06 03:38:40;;;;;;;3.77;3.10;;;24.80;52.00;;;;;;5014338;28;20455;-83
2023/08/06 03:41:08;;;;;;;3.20;3.00;;;24.80;52.00;;;;;;5014395;28;20468;-83
2023/08/06 03:43:36;;;;;;;3.20;3.00;;;24.80;52.10;;;;;;5006683;28;20537;-83
2023/08/06 03:46:05;;;;;;;3.00;2.80;;;24.70;52.00;;;;;;5005425;28;20471;-83
2023/08/06 03:48:32;;;;;;;3.27;3.07;;;24.80;52.10;;;;;;5013726;28;20473;-84
2023/08/06 03:51:02;;;;;;;3.63;3.20;;;24.70;52.00;;;;;;5010086;28;20468;-83
2023/08/06 03:53:29;;;;;;;3.40;3.10;;;24.70;51.90;;;;;;5014064;28;20460;-83
2023/08/06 03:56:00;;;;;;;3.20;3.00;;;24.70;51.90;;;;;;5011426;28;20427;-83
2023/08/06 03:58:29;;;;;;;3.07;2.87;;;24.70;52.00;;;;;;5017526;28;20468;-83
2023/08/06 04:01:00;;;;;;;3.17;2.70;;;24.70;52.00;;;;;;5016769;28;20505;-83
2023/08/06 04:03:29;;;;;;;2.60;2.50;;;24.70;52.00;;;;;;5016842;28;20423;-83
2023/08/06 04:05:57;;;;;;;2.73;2.63;;;24.70;52.00;;;;;;5016317;28;20449;-83
2023/08/06 04:08:25;;;;;;;2.90;2.60;;;24.70;51.90;;;;;;5010999;28;20524;-83
2023/08/06 04:10:53;;;;;;;3.00;2.90;;;24.70;52.00;;;;;;5015598;28;20500;-83
2023/08/06 04:13:22;;;;;;;3.50;3.20;;;24.70;52.00;;;;;;5011262;28;20476;-83
2023/08/06 04:15:50;;;;;;;3.00;2.80;;;24.60;51.90;;;;;;5017291;28;20495;-83
2023/08/06 04:18:19;;;;;;;2.67;2.57;;;24.60;51.90;;;;;;5010880;28;20441;-83
2023/08/06 04:20:49;;;;;;;2.67;2.57;;;24.60;51.90;;;;;;5016988;28;20473;-83
2023/08/06 04:23:17;;;;;;;3.17;2.97;;;24.60;52.00;;;;;;5017638;28;20468;-84
2023/08/06 04:25:45;;;;;;;2.90;2.70;;;24.60;52.10;;;;;;5017321;28;20472;-84
2023/08/06 04:28:13;;;;;;;3.00;2.80;;;24.60;52.00;;;;;;4996625;28;20439;-83
2023/08/06 04:30:42;;;;;;;2.90;2.80;;;24.60;51.90;;;;;;5001899;28;20557;-83
2023/08/06 04:33:10;;;;;;;2.80;2.70;;;24.60;51.70;;;;;;5015775;28;20426;-85
2023/08/06 04:35:38;;;;;;;3.30;3.00;;;24.60;52.10;;;;;;5015347;28;20425;-83
2023/08/06 04:38:06;;;;;;;2.93;2.80;;;24.60;52.00;;;;;;5012798;28;20471;-83
2023/08/06 04:40:34;;;;;;;3.03;2.93;;;24.60;51.80;;;;;;5007822;28;20443;-84
2023/08/06 04:43:02;;;;;;;3.03;2.87;;;24.60;52.00;;;;;;5010968;28;20480;-83
2023/08/06 04:45:31;;;;;;;2.77;2.67;;;24.50;51.90;;;;;;5007102;28;20547;-84
2023/08/06 04:48:03;;;;;;;3.37;2.80;;;24.50;52.00;;;;;;5012826;28;20425;-84
2023/08/06 04:50:30;;;;;;;3.77;2.83;;;24.60;51.90;;;;;;5008036;28;20441;-83
2023/08/06 04:52:58;;;;;;;3.30;3.10;;;24.60;51.90;;;;;;4995284;28;20491;-83
2023/08/06 04:55:26;;;;;;;2.57;2.47;;;24.60;52.00;;;;;;5015146;28;20472;-83
2023/08/06 04:57:54;;;;;;;3.20;2.80;;;24.50;52.40;;;;;;5015592;28;20528;-84
2023/08/06 05:00:22;;;;;;;3.23;3.03;;;24.60;51.90;;;;;;5010190;28;20575;-83
2023/08/06 05:02:50;;;;;;;3.50;3.30;;;24.50;51.80;;;;;;5011213;28;20469;-83
2023/08/06 05:05:20;;;;;;;3.20;2.73;;;24.50;51.70;;;;;;5005778;28;20422;-84
2023/08/06 05:07:50;;;;;;;2.63;2.53;;;24.50;51.70;;;;;;5012340;28;20453;-85
2023/08/06 05:10:18;;;;;;;2.53;2.43;;;24.60;51.90;;;;;;5005911;28;21023;-84
2023/08/06 05:12:46;;;;;;;2.40;2.30;;;24.60;51.90;;;;;;5013384;28;20497;-84
2023/08/06 05:15:14;;;;;;;3.10;2.90;;;24.60;51.80;;;;;;5015694;28;20470;-83
2023/08/06 05:17:42;;;;;;;2.57;2.47;;;24.60;51.70;;;;;;5014854;28;20463;-84
2023/08/06 05:20:11;;;;;;;3.17;2.97;;;24.60;51.70;;;;;;5022273;28;20450;-82
2023/08/06 05:22:41;;;;;;;2.80;2.70;;;24.60;51.50;;;;;;5018270;28;20486;-82
2023/08/06 05:25:09;;;;;;;2.50;2.40;;;24.60;51.50;;;;;;5013785;28;20536;-82
2023/08/06 05:27:37;;;;;;;2.63;2.53;;;24.60;51.90;;;;;;5012618;28;20558;-82
2023/08/06 05:30:07;;;;;;;2.73;2.63;;;24.60;51.70;;;;;;5012699;28;20415;-83
2023/08/06 05:32:35;;;;;;;2.60;2.50;;;24.70;51.60;;;;;;5013143;28;20484;-83
2023/08/06 05:35:03;;;;;;;3.13;2.93;;;24.70;52.30;;;;;;4999737;28;20441;-83
2023/08/06 05:37:31;;;;;;;3.50;2.80;;;24.60;51.50;;;;;;5013083;28;20532;-82
2023/08/06 05:40:01;;;;;;;2.53;2.30;;;24.70;51.70;;;;;;5014181;28;20495;-82
2023/08/06 05:42:29;;;;;;;3.00;2.87;;;24.70;51.70;;;;;;5016298;28;20450;-83
2023/08/06 05:44:57;;;;;;;2.60;2.50;;;24.70;51.50;;;;;;5023103;28;20479;-83
2023/08/06 05:47:24;;;;;;;2.70;2.60;;;24.70;51.60;;;;;;5011232;28;20527;-83
2023/08/06 05:49:53;;;;;;;2.50;2.40;;;24.70;52.00;;;;;;5017705;28;20436;-83
2023/08/06 05:52:20;;;;;;;2.43;2.33;;;24.70;51.70;;;;;;4998094;28;20444;-82
2023/08/06 05:54:48;;;;;;;2.90;2.70;;;24.70;51.60;;;;;;5016258;28;20452;-83
2023/08/06 05:57:18;;;;;;;2.70;2.60;;;24.70;51.80;;;;;;5020029;28;20415;-82
2023/08/06 05:59:46;;;;;;;2.47;2.37;;;24.70;51.60;;;;;;5021738;28;20510;-83
2023/08/06 06:02:14;;;;;;;2.90;2.80;;;24.70;51.60;;;;;;5017800;28;20555;-83
2023/08/06 06:04:42;;;;;;;2.70;2.60;;;24.70;51.70;;;;;;5008225;28;20514;-83
2023/08/06 06:07:10;;;;;;;3.80;3.10;;;24.80;51.80;;;;;;5009988;28;20508;-83
2023/08/06 06:09:39;;;;;;;3.77;2.83;;;24.80;51.60;;;;;;5010206;28;20431;-83
2023/08/06 06:12:07;;;;;;;3.00;2.80;;;24.70;52.20;;;;;;5012159;28;20476;-83
2023/08/06 06:14:37;;;;;;;2.97;2.87;;;24.80;51.70;;;;;;4999044;28;20536;-83
2023/08/06 06:17:05;;;;;;;3.10;2.90;;;24.80;51.60;;;;;;5008762;28;20446;-83
2023/08/06 06:19:33;;;;;;;3.20;2.90;;;24.80;51.60;;;;;;5004992;28;20456;-83
2023/08/06 06:22:01;;;;;;;3.00;2.83;;;24.80;51.60;;;;;;5019393;28;20527;-82
2023/08/06 06:24:30;;;;;;;3.10;2.90;;;24.90;51.40;;;;;;5006000;28;20473;-83
2023/08/06 06:26:58;;;;;;;3.07;2.90;;;24.90;51.50;;;;;;5010842;28;20526;-83
2023/08/06 06:29:26;;;;;;;2.83;2.67;;;24.90;51.60;;;;;;5020664;28;20515;-83
2023/08/06 06:31:55;;;;;;;2.47;2.37;;;24.90;51.50;;;;;;5004149;28;20468;-83
2023/08/06 06:34:23;;;;;;;2.53;2.43;;;25.00;51.50;;;;;;5001139;28;20446;-83
2023/08/06 06:36:51;;;;;;;2.90;2.70;;;25.00;51.60;;;;;;5016610;28;20427;-83
2023/08/06 06:39:19;;;;;;;3.10;2.90;;;25.00;51.50;;;;;;5017890;28;20457;-82
2023/08/06 06:41:47;;;;;;;3.30;3.10;;;25.00;51.60;;;;;;5000235;28;20493;-83
2023/08/06 06:44:16;;;;;;;2.97;2.80;;;25.10;51.30;;;;;;5005274;28;20436;-82
2023/08/06 06:46:44;;;;;;;3.43;3.23;;;25.10;52.00;;;;;;5015095;28;20423;-82
2023/08/06 06:49:14;;;;;;;2.93;2.80;;;25.10;51.20;;;;;;5016543;28;20479;-83
2023/08/06 06:51:41;;;;;;;3.40;3.00;;;25.20;51.50;;;;;;5017726;28;20431;-82
2023/08/06 06:54:09;;;;;;;3.20;3.00;;;25.20;51.30;;;;;;5002721;28;20449;-82
2023/08/06 06:56:37;;;;;;;3.30;3.10;;;25.20;51.30;;;;;;5019330;28;20551;-81
2023/08/06 06:59:05;;;;;;;3.83;3.53;;;25.20;51.20;;;;;;5020330;28;20544;-84
2023/08/06 07:01:33;;;;;;;3.50;3.20;;;25.20;51.40;;;;;;5019413;28;20537;-85
2023/08/06 07:04:04;;;;;;;3.70;3.50;;;25.30;51.40;;;;;;5016295;28;20458;-82
2023/08/06 07:06:33;;;;;;;3.60;3.40;;;25.40;51.60;;;;;;5014679;28;20935;-82
2023/08/06 07:09:01;;;;;;;3.60;3.37;;;25.50;51.20;;;;;;5000523;28;20420;-82
2023/08/06 07:11:29;;;;;;;3.43;3.23;;;25.50;51.20;;;;;;5001267;28;20492;-83
2023/08/06 07:13:57;;;;;;;3.20;3.00;;;25.50;51.30;;;;;;5004737;28;20480;-82
2023/08/06 07:16:25;;;;;;;2.87;2.73;;;25.60;51.30;;;;;;5010062;28;20458;-83
2023/08/06 07:18:54;;;;;;;3.63;3.43;;;25.60;51.40;;;;;;5009190;28;20834;-83
2023/08/06 07:21:23;;;;;;;3.27;3.07;;;25.70;51.30;;;;;;5006584;28;20484;-82
2023/08/06 07:23:52;;;;;;;3.40;3.20;;;25.70;51.40;;;;;;5008794;28;20490;-82
2023/08/06 07:26:20;;;;;;;3.03;2.90;;;25.70;51.50;;;;;;5009484;28;20491;-83
2023/08/06 07:28:48;;;;;;;3.60;3.30;;;25.90;51.60;;;;;;5007893;28;20547;-84
2023/08/06 07:31:16;;;;;;;3.20;3.10;;;25.90;51.20;;;;;;5007191;28;20465;-84
2023/08/06 07:33:44;;;;;;;3.40;3.20;;;25.90;51.30;;;;;;5008742;28;20448;-83
2023/08/06 07:36:13;;;;;;;3.30;3.00;;;25.90;51.50;;;;;;5012735;28;20479;-83
2023/08/06 07:38:41;;;;;;;3.80;3.50;;;26.00;51.60;;;;;;5016972;28;20472;-84
2023/08/06 07:41:11;;;;;;;3.93;3.63;;;26.00;51.60;;;;;;5008939;28;20476;-84
2023/08/06 07:43:39;;;;;;;3.60;3.30;;;26.10;51.80;;;;;;5008178;28;20452;-84
2023/08/06 07:46:06;;;;;;;3.50;3.30;;;26.20;51.70;;;;;;5005136;28;20453;-84
2023/08/06 07:48:35;;;;;;;3.03;2.83;;;26.20;51.70;;;;;;5004708;28;20503;-84
2023/08/06 07:51:03;;;;;;;3.37;3.17;;;26.30;51.60;;;;;;5006902;28;20550;-84
2023/08/06 07:53:32;;;;;;;3.60;3.40;;;26.30;51.70;;;;;;5003234;28;20453;-84
2023/08/06 07:56:01;;;;;;;4.00;3.70;;;26.40;51.70;;;;;;5003115;28;20479;-84
2023/08/06 07:58:31;;;;;;;3.83;3.63;;;26.50;51.70;;;;;;5005856;28;20461;-84
2023/08/06 08:00:59;;;;;;;4.07;3.67;;;26.60;51.60;;;;;;5006700;28;20555;-84
2023/08/06 08:03:30;;;;;;;3.47;3.37;;;26.70;51.80;;;;;;5014087;28;20433;-84
2023/08/06 08:05:58;;;;;;;3.50;3.30;;;26.90;52.00;;;;;;5007744;28;20448;-83
2023/08/06 08:08:27;;;;;;;3.57;3.37;;;27.00;51.80;;;;;;5002757;28;20448;-84
2023/08/06 08:10:55;;;;;;;4.17;3.87;;;27.00;51.40;;;;;;4994423;28;20462;-84
2023/08/06 08:13:24;;;;;;;3.80;3.60;;;27.10;51.70;;;;;;4994657;28;20449;-84
2023/08/06 08:15:59;;;;;;;4.40;4.00;;;27.00;51.50;;;;;;4994159;28;20492;-84
2023/08/06 08:18:27;;;;;;;3.70;3.60;;;27.00;51.80;;;;;;4996861;28;20453;-84
2023/08/06 08:20:56;;;;;;;3.97;3.77;;;27.10;52.00;;;;;;5013760;28;20476;-84
2023/08/06 08:23:24;;;;;;;4.40;4.10;;;27.30;52.00;;;;;;5015437;28;20567;-83
2023/08/06 08:25:52;;;;;;;4.50;4.20;;;27.40;51.90;;;;;;5007451;28;20454;-86
2023/08/06 08:28:20;;;;;;;4.27;4.07;;;27.50;52.00;;;;;;5004559;28;20887;-87
2023/08/06 08:30:48;;;;;;;4.33;4.03;;;27.70;52.20;;;;;;5006281;28;20502;-87
2023/08/06 08:33:17;;;;;;;4.00;3.80;;;27.80;51.80;;;;;;5001583;28;20543;-87
2023/08/06 08:35:47;;;;;;;4.97;4.20;;;27.90;51.80;;;;;;5000832;28;20523;-85
2023/08/06 08:38:15;;;;;;;4.23;3.70;;;28.00;51.70;;;;;;5003633;28;20473;-86
2023/08/06 08:40:46;;;;;;;6.10;4.33;;;28.10;51.60;;;;;;5004776;28;20536;-86
2023/08/06 08:43:14;;;;;;;4.30;3.90;;;28.20;51.60;;;;;;5002179;28;20434;-86
2023/08/06 08:45:42;;;;;;;4.37;3.97;;;28.30;51.60;;;;;;5007198;28;20445;-85
2023/08/06 08:48:11;;;;;;;4.90;4.50;;;28.40;51.40;;;;;;5004254;28;20463;-85
2023/08/06 08:50:40;;;;;;;4.10;3.90;;;28.40;51.40;;;;;;5003115;28;20508;-85
2023/08/06 08:53:08;;;;;;;5.00;4.20;;;28.50;51.50;;;;;;5006912;28;20495;-83
2023/08/06 08:55:37;;;;;;;5.17;4.67;;;28.60;51.50;;;;;;5008942;28;20467;-84
2023/08/06 08:58:05;;;;;;;4.40;4.20;;;28.80;51.60;;;;;;5013382;28;20514;-85
2023/08/06 09:00:33;;;;;;;5.60;4.50;;;29.00;51.40;;;;;;5005881;28;20508;-85
2023/08/06 09:03:01;;;;;;;4.00;3.80;;;29.20;51.20;;;;;;5008294;28;20514;-84
2023/08/06 09:05:30;;;;;;;5.80;4.50;;;29.40;51.10;;;;;;5003037;28;20498;-84
2023/08/06 09:08:02;;;;;;;4.40;4.20;;;29.60;51.00;;;;;;5009347;28;20524;-85
2023/08/06 09:10:31;;;;;;;4.60;4.30;;;29.80;51.00;;;;;;4998352;28;20932;-84
2023/08/06 09:13:00;;;;;;;5.80;4.40;;;30.00;50.80;;;;;;5011576;28;20530;-84
2023/08/06 09:15:29;;;;;;;4.17;3.70;;;30.20;50.70;;;;;;5006846;28;20986;-84
2023/08/06 09:17:57;;;;;;;4.50;4.20;;;30.40;50.40;;;;;;5013101;28;20448;-84
2023/08/06 09:20:25;;;;;;;4.80;4.40;;;30.60;50.30;;;;;;4999196;28;20452;-85
2023/08/06 09:22:54;;;;;;;4.43;4.13;;;30.80;50.10;;;;;;5010526;28;20491;-85
2023/08/06 09:25:25;;;;;;;4.50;4.20;;;31.10;49.60;;;;;;5006838;28;20869;-83
2023/08/06 09:27:53;;;;;;;19.83;6.63;;;31.20;49.00;;;;;;5017106;28;20459;-77
2023/08/06 09:30:31;;;;;;;12.50;7.70;;;31.00;46.50;;;;;;5018825;28;20464;-79
2023/08/06 09:33:00;;;;;;;11.73;7.10;;;30.70;46.70;;;;;;5016712;28;20526;-79
2023/08/06 09:35:29;;;;;;;10.00;6.30;;;30.60;47.30;;;;;;5014372;28;20471;-80
2023/08/06 09:38:00;;;;;;;7.57;5.83;;;30.50;47.70;;;;;;5003398;28;20476;-81
2023/08/06 09:40:31;;;;;;;6.43;5.93;;;30.50;47.40;;;;;;5012095;28;20479;-80
2023/08/06 09:42:59;;;;;;;5.60;5.10;;;30.40;47.10;;;;;;5013939;28;20476;-80
2023/08/06 09:45:32;;;;;;;4.60;4.20;;;30.30;46.80;;;;;;5007598;28;20456;-79
2023/08/06 09:48:00;;;;;;;4.53;4.13;;;30.20;46.00;;;;;;5000197;28;20440;-80
2023/08/06 09:50:30;;;;;;;5.47;4.13;;;30.20;46.20;;;;;;5016435;28;20773;-78
2023/08/06 09:52:58;;;;;;;4.23;3.93;;;30.20;45.90;;;;;;5015978;28;20498;-79
2023/08/06 09:55:27;;;;;;;13.30;4.70;;;30.30;46.00;;;;;;5015295;28;20437;-78
2023/08/06 09:57:56;;;;;;;4.40;4.20;;;30.20;45.70;;;;;;5020181;28;20455;-79
2023/08/06 10:00:24;;;;;;;4.33;4.13;;;30.10;45.70;;;;;;5022073;28;20521;-79
2023/08/06 10:02:55;;;;;;;4.70;4.50;;;30.10;45.90;;;;;;5028648;28;20495;-80
2023/08/06 10:05:23;;;;;;;5.20;4.90;;;29.80;45.80;;;;;;5009669;28;20457;-80
2023/08/06 10:07:52;;;;;;;5.20;4.83;;;29.50;46.20;;;;;;5011628;28;20451;-80
2023/08/06 10:10:20;;;;;;;5.87;5.57;;;29.60;46.20;;;;;;5009985;28;20445;-81
2023/08/06 10:12:50;;;;;;;5.80;5.43;;;29.60;45.80;;;;;;5012054;28;20475;-81
2023/08/06 10:15:22;;;;;;;7.00;6.33;;;29.50;45.50;;;;;;5008148;28;20453;-80
2023/08/06 10:17:51;;;;;;;6.60;6.10;;;29.40;45.40;;;;;;5010466;28;20444;-77
2023/08/06 10:20:22;;;;;;;5.67;5.37;;;29.60;46.30;;;;;;5015223;28;20451;-80
2023/08/06 10:23:01;;;;;;;6.77;5.43;;;29.80;46.20;;;;;;5004870;28;20469;-77
2023/08/06 10:25:33;;;;;;;6.37;5.77;;;29.70;45.20;;;;;;5002717;28;20449;-80
2023/08/06 10:28:02;;;;;;;5.50;5.20;;;29.40;45.50;;;;;;5017202;28;20460;-81
2023/08/06 10:30:32;;;;;;;6.10;5.60;;;29.40;46.20;;;;;;5010672;28;20480;-79
2023/08/06 10:33:01;;;;;;;5.20;4.80;;;29.50;45.80;;;;;;5015569;28;20460;-84
2023/08/06 10:35:29;;;;;;;5.20;4.90;;;29.70;45.40;;;;;;5009130;28;20438;-81
2023/08/06 10:38:00;;;;;;;5.30;5.00;;;30.00;45.70;;;;;;5015924;28;20437;-81
2023/08/06 10:40:29;;;;;;;4.83;4.53;;;30.00;45.10;;;;;;5018644;28;20436;-79
2023/08/06 10:42:59;;;;;;;4.10;4.00;;;30.10;45.40;;;;;;5012548;28;20509;-79
2023/08/06 10:45:28;;;;;;;3.73;3.47;;;29.90;44.70;;;;;;5008693;28;20564;-80
2023/08/06 10:47:58;;;;;;;4.30;3.90;;;29.90;45.60;;;;;;5010741;28;20477;-77
2023/08/06 10:50:26;;;;;;;23.00;3.10;;;30.00;44.90;;;;;;5012189;28;20480;-77
2023/08/06 10:52:54;;;;;;;2.50;2.30;;;30.10;44.40;;;;;;5012092;28;20972;-78
2023/08/06 10:55:25;;;;;;;2.20;2.00;;;30.10;43.90;;;;;;5013078;28;20504;-78
2023/08/06 10:57:54;;;;;;;2.87;1.87;;;30.10;43.70;;;;;;5010334;28;20528;-79
2023/08/06 11:00:22;;;;;;;1.80;1.70;;;30.20;43.80;;;;;;5013016;28;20440;-78
2023/08/06 11:02:50;;;;;;;2.20;2.10;;;30.30;44.40;;;;;;5011002;28;20469;-81
2023/08/06 11:05:19;;;;;;;1.60;1.60;;;30.20;44.40;;;;;;5005231;28;20472;-80
2023/08/06 11:07:49;;;;;;;1.40;1.40;;;30.20;44.10;;;;;;5004109;28;20472;-79
2023/08/06 11:10:17;;;;;;;1.30;1.20;;;30.20;44.00;;;;;;5010840;28;20487;-78
2023/08/06 11:12:45;;;;;;;1.60;1.50;;;30.10;43.80;;;;;;5002610;28;20445;-79
2023/08/06 11:15:13;;;;;;;1.30;1.30;;;30.10;43.50;;;;;;5012787;28;20444;-80
2023/08/06 11:17:42;;;;;;;1.40;1.40;;;30.20;43.60;;;;;;5013055;28;20508;-78
2023/08/06 11:20:10;;;;;;;2.93;1.40;;;30.30;44.10;;;;;;5013439;28;20431;-79
2023/08/06 11:22:41;;;;;;;1.77;1.50;;;30.50;43.70;;;;;;5009318;28;20474;-79
2023/08/06 11:25:09;;;;;;;1.63;1.63;;;30.40;43.50;;;;;;5013101;28;20449;-78
2023/08/06 11:27:37;;;;;;;2.20;2.10;;;30.20;43.90;;;;;;5011053;28;20535;-77
2023/08/06 11:30:05;;;;;;;1.53;1.53;;;29.60;44.50;;;;;;5013058;28;20451;-79
2023/08/06 11:32:35;;;;;;;4.37;2.07;;;29.40;45.60;;;;;;5012845;28;20480;-75
2023/08/06 11:35:11;;;;;;;2.77;1.97;;;29.60;46.60;;;;;;5012265;28;20479;-79
2023/08/06 11:37:40;;;;;;;1.93;1.83;;;29.80;45.50;;;;;;5013175;28;20436;-78
2023/08/06 11:40:11;;;;;;;1.83;1.73;;;30.00;45.70;;;;;;5012692;28;20433;-79
2023/08/06 11:42:38;;;;;;;2.27;2.10;;;30.10;45.00;;;;;;5011741;28;20476;-79
2023/08/06 11:45:09;;;;;;;2.00;1.80;;;30.10;44.20;;;;;;5011442;28;20448;-78
2023/08/06 11:47:39;;;;;;;2.00;1.90;;;30.30;44.30;;;;;;5012681;28;20468;-79
2023/08/06 11:50:07;;;;;;;2.03;1.70;;;30.30;43.70;;;;;;5006571;28;20966;-78
2023/08/06 11:52:35;;;;;;;1.83;1.77;;;30.20;44.00;;;;;;5009836;28;20452;-77
2023/08/06 11:55:06;;;;;;;1.57;1.57;;;30.40;43.30;;;;;;5005068;28;20443;-77
2023/08/06 11:57:35;;;;;;;1.80;1.70;;;30.40;43.50;;;;;;5011930;28;20443;-77
2023/08/06 12:00:04;;;;;;;1.70;1.70;;;30.40;43.00;;;;;;5007812;28;20449;-80
2023/08/06 12:02:36;;;;;;;2.77;2.23;;;30.50;43.00;;;;;;5008349;28;20487;-78
2023/08/06 12:05:05;;;;;;;2.10;2.00;;;30.60;42.90;;;;;;5012962;28;20517;-79
2023/08/06 12:07:34;;;;;;;1.73;1.63;;;30.80;42.70;;;;;;5008766;28;20500;-80
2023/08/06 12:10:03;;;;;;;2.00;1.90;;;30.90;43.20;;;;;;5013028;28;20436;-79
2023/08/06 12:12:31;;;;;;;2.77;1.90;;;30.90;43.10;;;;;;5012477;28;20550;-79
2023/08/06 12:14:59;;;;;;;1.33;1.33;;;31.00;42.50;;;;;;4999314;28;20524;-78
2023/08/06 12:17:27;;;;;;;1.63;1.53;;;31.10;42.60;;;;;;5010938;28;20544;-80
2023/08/06 12:19:55;;;;;;;1.77;1.67;;;31.20;42.00;;;;;;5013432;28;20439;-78
2023/08/06 12:22:23;;;;;;;1.67;1.57;;;31.30;41.90;;;;;;5012494;28;20488;-78
2023/08/06 12:24:51;;;;;;;2.03;1.87;;;31.30;41.70;;;;;;5010111;28;20907;-77
2023/08/06 12:27:21;;;;;;;1.50;1.50;;;30.90;42.00;;;;;;5012305;28;20535;-77
2023/08/06 12:29:49;;;;;;;1.93;1.83;;;30.70;41.90;;;;;;5011803;28;20502;-80
2023/08/06 12:32:17;;;;;;;3.03;2.83;;;30.40;42.40;;;;;;5012021;28;20460;-78
2023/08/06 12:34:45;;;;;;;3.43;1.90;;;30.60;43.10;;;;;;5011642;28;20468;-79
2023/08/06 12:37:15;;;;;;;1.50;1.50;;;30.60;42.10;;;;;;5011605;28;20961;-80
2023/08/06 12:39:43;;;;;;;1.90;1.80;;;30.50;42.40;;;;;;5010918;28;20450;-79
2023/08/06 12:42:11;;;;;;;1.77;1.70;;;30.60;42.30;;;;;;5006829;28;20546;-80
2023/08/06 12:44:40;;;;;;;1.77;1.60;;;30.70;42.30;;;;;;5015688;28;20503;-79
2023/08/06 12:47:08;;;;;;;1.97;1.83;;;30.70;41.70;;;;;;5014996;28;20440;-78
2023/08/06 12:49:36;;;;;;;2.20;2.10;;;30.90;41.90;;;;;;5014907;28;20927;-79
2023/08/06 12:52:06;;;;;;;2.03;1.70;;;31.00;41.50;;;;;;5007177;28;20559;-77